createdAt,value
2023-01-06T00:01:15.769Z,313.98
2023-01-06T00:03:44.082Z,305.75
2023-01-06T00:06:13.236Z,303.17
2023-01-06T00:08:41.261Z,301.45
2023-01-06T00:11:10.220Z,282.80
2023-01-06T00:13:38.769Z,294.13
2023-01-06T00:16:07.810Z,288.50
2023-01-06T00:18:37.216Z,304.67
2023-01-06T00:21:05.951Z,295.90
2023-01-06T00:23:33.848Z,313.92
2023-01-06T00:26:01.745Z,297.05
2023-01-06T00:28:29.810Z,292.85
2023-01-06T00:30:57.766Z,305.10
2023-01-06T00:33:26.025Z,315.25
2023-01-06T00:35:59.768Z,304.90
2023-01-06T00:38:27.503Z,325.02
2023-01-06T00:40:55.135Z,306.52
2023-01-06T00:43:22.814Z,299.38
2023-01-06T00:45:50.579Z,312.27
2023-01-06T00:48:18.673Z,298.95
2023-01-06T00:50:46.393Z,319.98
2023-01-06T00:53:16.829Z,308.90
2023-01-06T00:55:44.484Z,319.98
2023-01-06T00:58:12.140Z,327.00
2023-01-06T01:00:40.047Z,315.60
2023-01-06T01:03:07.877Z,324.95
2023-01-06T01:05:35.567Z,332.95
2023-01-06T01:08:03.257Z,332.48
2023-01-06T01:10:32.274Z,328.13
2023-01-06T01:13:00.086Z,316.80
2023-01-06T01:15:27.950Z,323.67
2023-01-06T01:17:55.732Z,336.88
2023-01-06T01:20:23.735Z,342.23
2023-01-06T01:22:51.458Z,326.98
2023-01-06T01:25:19.151Z,324.90
2023-01-06T01:27:48.165Z,341.65
2023-01-06T01:30:15.900Z,325.90
2023-01-06T01:32:43.557Z,329.40
2023-01-06T01:35:11.825Z,327.45
2023-01-06T01:37:40.434Z,312.63
2023-01-06T01:40:09.406Z,327.15
2023-01-06T01:42:37.135Z,338.13
2023-01-06T01:45:07.933Z,341.90
2023-01-06T01:47:49.995Z,326.50
2023-01-06T01:50:25.916Z,321.10
2023-01-06T01:52:57.329Z,317.42
2023-01-06T01:55:28.162Z,340.67
2023-01-06T01:58:00.595Z,313.88
2023-01-06T02:00:29.787Z,323.13
2023-01-06T02:02:58.211Z,353.70
2023-01-06T02:05:28.296Z,333.00
2023-01-06T02:07:58.327Z,340.83
2023-01-06T02:10:26.302Z,332.85
2023-01-06T02:12:58.831Z,313.13
2023-01-06T02:15:30.069Z,324.45
2023-01-06T02:18:26.881Z,326.20
2023-01-06T02:21:19.043Z,330.25
2023-01-06T02:24:23.891Z,315.33
2023-01-06T02:27:11.437Z,326.10
2023-01-06T02:30:01.379Z,325.35
2023-01-06T02:33:03.225Z,329.17
2023-01-06T02:35:49.478Z,316.00
2023-01-06T02:38:27.984Z,332.20
2023-01-06T02:41:10.823Z,337.23
2023-01-06T02:43:47.466Z,330.90
2023-01-06T02:46:28.658Z,338.33
2023-01-06T02:49:12.029Z,335.75
2023-01-06T02:51:50.305Z,341.58
2023-01-06T02:54:24.535Z,343.70
2023-01-06T02:57:01.662Z,345.73
2023-01-06T02:59:34.984Z,330.88
2023-01-06T03:02:05.636Z,356.35
2023-01-06T03:04:40.082Z,352.17
2023-01-06T03:07:09.744Z,347.50
2023-01-06T03:09:39.822Z,340.08
2023-01-06T03:12:15.351Z,350.20
2023-01-06T03:14:47.491Z,345.20
2023-01-06T03:17:15.552Z,343.70
2023-01-06T03:19:45.798Z,347.63
2023-01-06T03:22:16.863Z,346.33
2023-01-06T03:24:46.295Z,339.48
2023-01-06T03:27:16.241Z,343.90
2023-01-06T03:29:44.245Z,352.98
2023-01-06T03:32:19.393Z,354.98
2023-01-06T03:35:09.527Z,341.20
2023-01-06T03:37:51.290Z,349.80
2023-01-06T03:40:29.711Z,335.17
2023-01-06T03:43:14.031Z,344.73
2023-01-06T03:46:10.114Z,354.67
2023-01-06T03:48:54.003Z,344.80
2023-01-06T03:51:37.930Z,345.63
2023-01-06T03:54:14.644Z,342.98
2023-01-06T03:56:46.084Z,352.98
2023-01-06T03:59:19.291Z,343.30
2023-01-06T04:01:51.161Z,337.80
2023-01-06T04:04:20.556Z,351.35
2023-01-06T04:06:50.429Z,366.05
2023-01-06T04:09:18.243Z,349.05
2023-01-06T04:12:04.178Z,359.92
2023-01-06T04:14:34.887Z,357.90
2023-01-06T04:17:03.396Z,327.00
2023-01-06T04:19:31.245Z,344.95
2023-01-06T04:22:01.026Z,356.50
2023-01-06T04:24:31.399Z,344.70
2023-01-06T04:26:59.064Z,322.83
2023-01-06T04:29:27.164Z,345.63
2023-01-06T04:31:56.859Z,337.23
2023-01-06T04:34:24.719Z,336.75
2023-01-06T04:36:54.030Z,325.85
2023-01-06T04:39:23.040Z,367.05
2023-01-06T04:41:50.684Z,374.77
2023-01-06T04:44:18.314Z,342.60
2023-01-06T04:46:45.977Z,357.90
2023-01-06T04:49:13.624Z,350.10
2023-01-06T04:51:41.353Z,363.42
2023-01-06T04:54:08.991Z,356.35
2023-01-06T04:56:37.992Z,380.73
2023-01-06T04:59:05.665Z,351.02
2023-01-06T05:01:33.527Z,346.85
2023-01-06T05:04:02.226Z,351.25
2023-01-06T05:06:30.014Z,364.23
2023-01-06T05:08:57.684Z,345.95
2023-01-06T05:11:27.177Z,359.38
2023-01-06T05:13:56.129Z,358.33
2023-01-06T05:16:26.943Z,360.73
2023-01-06T05:18:55.658Z,356.25
2023-01-06T05:21:24.751Z,366.73
2023-01-06T05:23:53.600Z,356.23
2023-01-06T05:26:23.559Z,347.52
2023-01-06T05:28:51.721Z,362.52
2023-01-06T05:31:21.232Z,361.45
2023-01-06T05:33:48.852Z,355.98
2023-01-06T05:36:17.690Z,348.35
2023-01-06T05:38:46.323Z,360.98
2023-01-06T05:41:13.961Z,339.58
2023-01-06T05:43:42.634Z,354.77
2023-01-06T05:46:12.094Z,346.33
2023-01-06T05:48:41.706Z,344.98
2023-01-06T05:51:12.735Z,345.70
2023-01-06T05:53:41.947Z,359.10
2023-01-06T05:56:11.513Z,329.88
2023-01-06T05:58:41.014Z,357.50
2023-01-06T06:01:17.243Z,341.42
2023-01-06T06:03:47.158Z,346.38
2023-01-06T06:06:14.821Z,355.02
2023-01-06T06:08:42.425Z,330.63
2023-01-06T06:11:12.077Z,343.40
2023-01-06T06:13:40.665Z,362.75
2023-01-06T06:16:10.259Z,343.88
2023-01-06T06:18:42.696Z,352.80
2023-01-06T06:21:13.277Z,337.13
2023-01-06T06:23:41.438Z,333.55
2023-01-06T06:26:11.177Z,331.60
2023-01-06T06:28:39.845Z,347.65
2023-01-06T06:31:07.978Z,346.60
2023-01-06T06:33:36.331Z,339.80
2023-01-06T06:36:06.108Z,345.90
2023-01-06T06:38:35.094Z,330.30
2023-01-06T06:41:02.752Z,335.98
2023-01-06T06:43:30.483Z,331.90
2023-01-06T06:45:58.261Z,340.88
2023-01-06T06:48:26.200Z,336.50
2023-01-06T06:51:00.383Z,349.95
2023-01-06T06:53:28.476Z,336.15
2023-01-06T06:55:58.476Z,334.77
2023-01-06T06:58:26.216Z,355.10
2023-01-06T07:00:54.228Z,358.55
2023-01-06T07:03:22.806Z,357.17
2023-01-06T07:05:52.805Z,337.33
2023-01-06T07:08:20.621Z,341.60
2023-01-06T07:10:48.315Z,352.42
2023-01-06T07:13:17.284Z,334.25
2023-01-06T07:15:45.119Z,350.40
2023-01-06T07:18:12.864Z,351.88
2023-01-06T07:20:40.559Z,329.98
2023-01-06T07:23:08.250Z,366.23
2023-01-06T07:25:35.935Z,353.33
2023-01-06T07:28:06.968Z,348.80
2023-01-06T07:30:37.396Z,332.42
2023-01-06T07:33:05.692Z,327.73
2023-01-06T07:35:33.314Z,364.60
2023-01-06T07:38:05.204Z,348.67
2023-01-06T07:40:32.879Z,350.58
2023-01-06T07:43:04.433Z,344.92
2023-01-06T07:45:32.346Z,339.63
2023-01-06T07:48:01.612Z,362.00
2023-01-06T07:50:29.608Z,349.30
2023-01-06T07:52:58.908Z,372.38
2023-01-06T07:55:26.615Z,349.10
2023-01-06T07:57:54.626Z,341.30
2023-01-06T08:00:22.573Z,337.13
2023-01-06T08:02:50.401Z,351.65
2023-01-06T08:05:19.849Z,342.63
2023-01-06T08:07:47.504Z,334.23
2023-01-06T08:10:15.298Z,348.15
2023-01-06T08:12:43.263Z,346.98
2023-01-06T08:15:11.621Z,360.73
2023-01-06T08:17:39.215Z,345.77
2023-01-06T08:20:07.767Z,326.30
2023-01-06T08:22:36.992Z,343.05
2023-01-06T08:25:04.959Z,342.48
2023-01-06T08:27:32.647Z,333.27
2023-01-06T08:30:00.345Z,340.50
2023-01-06T08:32:28.031Z,328.27
2023-01-06T08:34:56.180Z,321.37
2023-01-06T08:37:23.964Z,341.58
2023-01-06T08:39:52.960Z,322.17
2023-01-06T08:42:20.751Z,326.30
2023-01-06T08:44:48.476Z,331.67
2023-01-06T08:47:16.126Z,325.75
2023-01-06T08:49:43.696Z,329.00
2023-01-06T08:52:11.401Z,329.98
2023-01-06T08:54:39.093Z,323.52
2023-01-06T08:57:09.035Z,321.35
2023-01-06T08:59:37.102Z,311.38
2023-01-06T09:02:05.067Z,310.80
2023-01-06T09:04:32.762Z,308.38
2023-01-06T09:07:00.598Z,307.63
2023-01-06T09:09:28.294Z,308.77
2023-01-06T09:11:56.042Z,297.10
2023-01-06T09:14:25.035Z,310.00
2023-01-06T09:16:52.759Z,311.17
2023-01-06T09:19:20.963Z,297.60
2023-01-06T09:21:48.634Z,302.95
2023-01-06T09:24:16.746Z,298.52
2023-01-06T09:26:44.524Z,301.27
2023-01-06T09:29:12.190Z,297.70
2023-01-06T09:31:41.232Z,297.20
2023-01-06T09:34:09.487Z,281.33
2023-01-06T09:36:37.130Z,272.75
2023-01-06T09:39:04.961Z,269.67
2023-01-06T09:42:01.633Z,260.00
2023-01-06T09:44:32.660Z,266.77
2023-01-06T09:47:03.842Z,252.35
2023-01-06T09:49:42.541Z,264.95
2023-01-06T09:52:18.255Z,280.05
2023-01-06T09:54:53.072Z,252.68
2023-01-06T09:57:29.850Z,278.77
2023-01-06T10:00:00.957Z,265.75
2023-01-06T10:02:34.591Z,277.25
2023-01-06T10:05:02.452Z,273.63
2023-01-06T10:07:39.991Z,272.42
2023-01-06T10:10:22.011Z,276.70
2023-01-06T10:13:04.458Z,278.52
2023-01-06T10:15:41.500Z,282.10
2023-01-06T10:18:25.036Z,283.05
2023-01-06T10:21:01.552Z,264.77
2023-01-06T10:23:49.033Z,272.77
2023-01-06T10:26:26.751Z,281.45
2023-01-06T10:28:58.239Z,284.70
2023-01-06T10:31:29.641Z,292.25
2023-01-06T10:33:59.763Z,281.00
2023-01-06T10:36:32.257Z,283.67
2023-01-06T10:39:02.003Z,280.63
2023-01-06T10:41:41.789Z,271.80
2023-01-06T10:44:11.909Z,280.15
2023-01-06T10:46:40.433Z,282.92
2023-01-06T10:49:16.488Z,273.73
2023-01-06T10:51:48.939Z,279.33
2023-01-06T10:54:21.994Z,268.73
2023-01-06T10:56:54.942Z,268.85
2023-01-06T10:59:22.707Z,264.85
2023-01-06T11:01:51.832Z,273.95
2023-01-06T11:04:21.587Z,283.75
2023-01-06T11:06:52.208Z,266.60
2023-01-06T11:09:27.236Z,266.48
2023-01-06T11:11:57.181Z,276.70
2023-01-06T11:14:29.564Z,278.98
2023-01-06T11:16:59.370Z,262.90
2023-01-06T11:19:37.008Z,276.80
2023-01-06T11:22:05.768Z,275.42
2023-01-06T11:24:33.733Z,260.10
2023-01-06T11:27:09.830Z,260.00
2023-01-06T11:29:37.415Z,252.65
2023-01-06T11:32:14.202Z,262.77
2023-01-06T11:34:52.482Z,256.77
2023-01-06T11:37:31.354Z,263.63
2023-01-06T11:40:05.642Z,243.98
2023-01-06T11:45:08.077Z,271.50
2023-01-06T11:47:35.980Z,258.40
2023-01-06T11:50:06.304Z,262.42
2023-01-06T11:52:35.345Z,280.00
2023-01-06T11:55:20.141Z,273.80
2023-01-06T11:57:56.870Z,266.58
2023-01-06T12:00:48.921Z,264.98
2023-01-06T12:03:25.495Z,260.73
2023-01-06T12:06:01.510Z,278.13
2023-01-06T12:08:34.182Z,273.35
2023-01-06T12:11:08.339Z,274.67
2023-01-06T12:13:44.188Z,254.90
2023-01-06T12:16:17.407Z,264.77
2023-01-06T12:18:45.221Z,267.55
2023-01-06T12:21:20.206Z,274.52
2023-01-06T12:23:49.888Z,255.20
2023-01-06T12:26:23.954Z,287.20
2023-01-06T12:28:55.957Z,254.63
2023-01-06T12:31:29.371Z,267.35
2023-01-06T12:34:01.999Z,280.70
2023-01-06T12:36:38.630Z,287.23
2023-01-06T12:39:13.723Z,277.00
2023-01-06T12:41:48.767Z,272.08
2023-01-06T12:44:24.717Z,270.67
2023-01-06T12:47:00.045Z,283.38
2023-01-06T12:49:36.283Z,245.60
2023-01-06T12:52:09.959Z,278.45
2023-01-06T12:54:38.603Z,274.77
2023-01-06T12:57:21.244Z,267.13
2023-01-06T13:00:04.519Z,267.67
2023-01-06T13:02:53.137Z,243.63
2023-01-06T13:05:44.827Z,268.75
2023-01-06T13:08:27.511Z,259.23
2023-01-06T13:11:05.488Z,264.40
2023-01-06T13:13:49.909Z,252.30
2023-01-06T13:16:23.243Z,245.48
2023-01-06T13:19:01.995Z,272.92
2023-01-06T13:21:33.140Z,250.65
2023-01-06T13:24:22.268Z,274.75
2023-01-06T13:27:17.205Z,259.38
2023-01-06T13:29:57.997Z,264.38
2023-01-06T13:32:43.086Z,242.82
2023-01-06T13:35:44.793Z,264.70
2023-01-06T13:38:48.657Z,264.35
2023-01-06T13:41:21.867Z,254.05
2023-01-06T13:43:52.127Z,267.58
2023-01-06T13:46:22.820Z,256.30
2023-01-06T13:48:53.554Z,280.55
2023-01-06T13:51:25.808Z,251.75
2023-01-06T13:53:54.713Z,271.85
2023-01-06T13:56:29.533Z,274.73
2023-01-06T13:59:20.368Z,274.85
2023-01-06T14:01:48.861Z,273.30
2023-01-06T14:04:45.846Z,266.02
2023-01-06T14:07:14.887Z,277.38
2023-01-06T14:09:49.740Z,272.10
2023-01-06T14:12:22.856Z,271.92
2023-01-06T14:14:59.435Z,271.45
2023-01-06T14:17:30.888Z,259.73
2023-01-06T14:19:59.201Z,277.73
2023-01-06T14:22:29.619Z,276.10
2023-01-06T14:25:00.903Z,274.83
2023-01-06T14:28:10.099Z,257.88
2023-01-06T14:30:38.062Z,244.43
2023-01-06T14:33:24.664Z,266.05
2023-01-06T14:36:02.719Z,249.07
2023-01-06T14:38:35.905Z,272.77
2023-01-06T14:41:06.026Z,272.17
2023-01-06T14:43:43.799Z,270.83
2023-01-06T14:46:19.558Z,273.25
2023-01-06T14:48:56.245Z,250.43
2023-01-06T14:51:25.404Z,282.40
2023-01-06T14:53:59.688Z,257.80
2023-01-06T14:56:34.051Z,269.40
2023-01-06T14:59:15.443Z,272.65
2023-01-06T15:01:44.968Z,271.92
2023-01-06T15:04:27.845Z,282.23
2023-01-06T15:07:00.365Z,258.77
2023-01-06T15:09:28.518Z,278.48
2023-01-06T15:11:56.609Z,268.00
2023-01-06T15:14:27.398Z,264.35
2023-01-06T15:16:56.916Z,271.35
2023-01-06T15:19:25.605Z,267.35
2023-01-06T15:21:54.586Z,245.77
2023-01-06T15:24:24.361Z,276.02
2023-01-06T15:26:53.564Z,266.73
2023-01-06T15:29:23.181Z,283.85
2023-01-06T15:31:53.864Z,263.42
2023-01-06T15:34:24.888Z,250.75
2023-01-06T15:36:55.261Z,273.45
2023-01-06T15:39:28.013Z,264.13
2023-01-06T15:41:57.320Z,270.17
2023-01-06T15:44:29.934Z,281.75
2023-01-06T15:47:07.704Z,268.23
2023-01-06T15:49:39.219Z,270.35
2023-01-06T15:52:23.289Z,273.88
2023-01-06T15:54:52.537Z,266.42
2023-01-06T15:57:20.576Z,257.48
2023-01-06T15:59:57.162Z,266.05
2023-01-06T16:02:29.932Z,247.80
2023-01-06T16:04:59.362Z,271.10
2023-01-06T16:07:48.248Z,264.67
2023-01-06T16:10:33.309Z,267.83
2023-01-06T16:13:19.837Z,254.07
2023-01-06T16:15:49.270Z,258.95
2023-01-06T16:18:27.298Z,260.27
2023-01-06T16:20:55.409Z,257.40
2023-01-06T16:23:30.248Z,239.70
2023-01-06T16:26:11.534Z,235.27
2023-01-06T16:28:47.636Z,245.38
2023-01-06T16:31:28.509Z,244.10
2023-01-06T16:34:15.050Z,261.42
2023-01-06T16:36:42.923Z,245.38
2023-01-06T16:39:10.933Z,244.05
2023-01-06T16:41:38.600Z,273.35
2023-01-06T16:44:06.219Z,248.43
2023-01-06T16:46:33.901Z,245.63
2023-01-06T16:49:11.354Z,261.92
2023-01-06T16:51:39.672Z,241.75
2023-01-06T16:54:11.599Z,256.50
2023-01-06T16:56:39.716Z,244.80
2023-01-06T16:59:12.345Z,247.27
2023-01-06T17:01:40.456Z,263.05
2023-01-06T17:04:12.269Z,240.85
2023-01-06T17:06:41.545Z,245.52
2023-01-06T17:09:18.097Z,283.67
2023-01-06T17:11:46.692Z,260.63
2023-01-06T17:14:16.493Z,274.52
2023-01-06T17:16:47.204Z,261.90
2023-01-06T17:19:20.423Z,262.40
2023-01-06T17:21:49.569Z,248.55
2023-01-06T17:24:20.877Z,275.70
2023-01-06T17:26:50.906Z,253.98
2023-01-06T17:29:21.164Z,255.80
2023-01-06T17:31:51.058Z,271.63
2023-01-06T17:34:24.562Z,270.05
2023-01-06T17:36:56.295Z,264.02
2023-01-06T17:39:27.001Z,256.58
2023-01-06T17:42:02.473Z,252.55
2023-01-06T17:44:36.253Z,244.30
2023-01-06T17:47:07.061Z,249.15
2023-01-06T17:49:36.996Z,235.02
2023-01-06T17:52:15.562Z,249.38
2023-01-06T17:55:08.192Z,271.55
2023-01-06T17:57:38.660Z,234.65
2023-01-06T18:00:17.308Z,266.63
2023-01-06T18:02:48.506Z,231.80
2023-01-06T18:05:58.674Z,247.40
2023-01-06T18:08:27.751Z,217.80
2023-01-06T18:10:58.785Z,251.45
2023-01-06T18:13:34.329Z,245.05
2023-01-06T18:16:02.895Z,241.05
2023-01-06T18:18:36.426Z,256.55
2023-01-06T18:21:24.916Z,260.17
2023-01-06T18:23:53.716Z,254.48
2023-01-06T18:26:36.870Z,246.02
2023-01-06T18:29:14.673Z,253.52
2023-01-06T18:31:43.126Z,256.92
2023-01-06T18:34:29.657Z,235.95
2023-01-06T18:37:00.218Z,246.77
2023-01-06T18:39:30.158Z,264.38
2023-01-06T18:42:06.035Z,254.00
2023-01-06T18:44:34.484Z,251.80
2023-01-06T18:47:02.216Z,262.13
2023-01-06T18:49:33.650Z,279.10
2023-01-06T18:52:24.640Z,266.83
2023-01-06T18:54:52.417Z,252.43
2023-01-06T18:57:29.182Z,242.13
2023-01-06T18:59:59.886Z,250.27
2023-01-06T19:02:37.967Z,262.13
2023-01-06T19:05:11.664Z,258.45
2023-01-06T19:07:40.730Z,267.85
2023-01-06T19:10:24.941Z,251.10
2023-01-06T19:12:52.642Z,240.85
2023-01-06T19:15:23.852Z,251.90
2023-01-06T19:17:53.773Z,268.92
2023-01-06T19:20:25.753Z,264.42
2023-01-06T19:22:56.846Z,271.83
2023-01-06T19:25:32.911Z,270.08
2023-01-06T19:28:03.642Z,250.55
2023-01-06T19:30:44.318Z,254.03
2023-01-06T19:33:34.829Z,242.00
2023-01-06T19:36:38.401Z,235.25
2023-01-06T19:39:30.611Z,242.07
2023-01-06T19:42:14.398Z,238.38
2023-01-06T19:44:42.430Z,246.27
2023-01-06T19:47:18.807Z,249.23
2023-01-06T19:49:52.786Z,238.98
2023-01-06T19:52:29.794Z,253.88
2023-01-06T19:55:16.006Z,247.88
2023-01-06T19:57:48.716Z,237.98
2023-01-06T20:00:25.817Z,252.35
2023-01-06T20:02:57.340Z,252.57
2023-01-06T20:05:25.630Z,251.73
2023-01-06T20:07:53.358Z,275.25
2023-01-06T20:10:22.390Z,246.45
2023-01-06T20:12:50.452Z,270.27
2023-01-06T20:15:18.339Z,250.90
2023-01-06T20:17:45.999Z,241.10
2023-01-06T20:20:13.657Z,254.35
2023-01-06T20:22:41.348Z,272.20
2023-01-06T20:25:09.633Z,254.10
2023-01-06T20:27:38.640Z,257.10
2023-01-06T20:30:07.215Z,252.38
2023-01-06T20:32:34.903Z,278.50
2023-01-06T20:35:02.559Z,267.48
2023-01-06T20:37:31.809Z,275.55
2023-01-06T20:40:00.551Z,264.13
2023-01-06T20:42:28.398Z,260.48
2023-01-06T20:44:57.459Z,274.80
2023-01-06T20:47:25.114Z,270.60
2023-01-06T20:49:53.237Z,252.30
2023-01-06T20:52:20.897Z,250.70
2023-01-06T20:54:48.640Z,255.30
2023-01-06T20:57:16.297Z,266.30
2023-01-06T20:59:43.940Z,274.98
2023-01-06T21:02:13.047Z,270.33
2023-01-06T21:04:40.747Z,247.52
2023-01-06T21:07:08.379Z,257.23
2023-01-06T21:09:36.079Z,260.88
2023-01-06T21:12:03.823Z,268.15
2023-01-06T21:14:32.284Z,244.93
2023-01-06T21:16:59.906Z,258.88
2023-01-06T21:19:29.134Z,275.73
2023-01-06T21:21:56.842Z,269.20
2023-01-06T21:24:25.292Z,277.48
2023-01-06T21:26:53.354Z,272.42
2023-01-06T21:29:21.266Z,266.98
2023-01-06T21:31:48.998Z,281.13
2023-01-06T21:34:16.615Z,253.38
2023-01-06T21:36:45.715Z,263.25
2023-01-06T21:39:13.440Z,255.00
2023-01-06T21:41:58.921Z,257.80
2023-01-06T21:44:26.542Z,260.33
2023-01-06T21:46:54.199Z,254.02
2023-01-06T21:49:21.826Z,267.77
2023-01-06T21:51:52.084Z,258.88
2023-01-06T21:54:19.847Z,254.48
2023-01-06T21:56:47.700Z,278.40
2023-01-06T21:59:15.383Z,258.20
2023-01-06T22:01:43.122Z,276.63
2023-01-06T22:04:10.790Z,260.60
2023-01-06T22:06:42.688Z,257.58
2023-01-06T22:09:15.835Z,257.13
2023-01-06T22:11:44.627Z,257.40
2023-01-06T22:14:14.014Z,253.30
2023-01-06T22:16:42.425Z,267.95
2023-01-06T22:19:12.416Z,253.35
2023-01-06T22:21:42.431Z,253.98
2023-01-06T22:24:15.122Z,248.25
2023-01-06T22:26:42.854Z,267.42
2023-01-06T22:29:11.005Z,266.48
2023-01-06T22:31:38.838Z,262.95
2023-01-06T22:34:07.756Z,260.27
2023-01-06T22:36:35.845Z,260.27
2023-01-06T22:39:03.590Z,256.33
2023-01-06T22:41:32.659Z,248.88
2023-01-06T22:44:00.273Z,247.18
2023-01-06T22:46:28.222Z,267.30
2023-01-06T22:48:55.883Z,259.60
2023-01-06T22:51:23.572Z,264.48
2023-01-06T22:53:51.807Z,254.95
2023-01-06T22:56:19.454Z,256.83
2023-01-06T22:58:48.425Z,258.60
2023-01-06T23:01:16.560Z,262.35
2023-01-06T23:03:44.259Z,278.13
2023-01-06T23:06:13.765Z,274.40
2023-01-06T23:08:58.427Z,241.63
2023-01-06T23:11:28.322Z,259.90
2023-01-06T23:13:58.608Z,239.93
2023-01-06T23:16:28.902Z,255.02
2023-01-06T23:18:56.655Z,261.33
2023-01-06T23:21:26.562Z,246.35
2023-01-06T23:23:54.773Z,253.35
2023-01-06T23:26:25.044Z,253.30
2023-01-06T23:28:53.023Z,256.00
2023-01-06T23:31:24.521Z,260.10
2023-01-06T23:33:55.702Z,251.95
2023-01-06T23:36:24.524Z,255.43
2023-01-06T23:38:52.707Z,255.85
2023-01-06T23:41:22.496Z,254.40
2023-01-06T23:43:51.218Z,269.40
2023-01-06T23:46:20.627Z,256.02
2023-01-06T23:48:50.534Z,266.95
2023-01-06T23:51:18.887Z,253.77
2023-01-06T23:53:47.203Z,263.50
2023-01-06T23:56:16.176Z,268.20
2023-01-06T23:58:46.441Z,266.42
